Time;durP1;ratioP1;P1;durP2;ratioP2;P2;SDS_P1;SDS_P2;PMS_P1;PMS_P2;Temp;Humidity;BMP_temperature;BMP_pressure;BME280_temperature;BME280_humidity;BME280_pressure;Samples;Min_cycle;Max_cycle;Signal;HPM_P1;HPM_P2
2022/05/30 00:01:32;;;;;;;9.17;5.60;;;;;;;;;;4961300;28;20401;-45
2022/05/30 00:03:58;;;;;;;9.43;5.90;;;;;;;;;;4959786;28;20559;-45
2022/05/30 00:06:25;;;;;;;7.13;5.50;;;;;;;;;;4957716;28;20508;-45
2022/05/30 00:08:51;;;;;;;7.13;5.93;;;;;;;;;;4960935;28;20217;-45
2022/05/30 00:11:18;;;;;;;10.93;5.97;;;;;;;;;;4959919;28;20457;-45
2022/05/30 00:13:44;;;;;;;7.97;6.27;;;;;;;;;;4959224;28;20178;-44
2022/05/30 00:16:13;;;;;;;8.97;6.50;;;;;;;;;;4959467;28;20606;-42
2022/05/30 00:18:39;;;;;;;8.43;7.07;;;;;;;;;;4958501;28;20178;-41
2022/05/30 00:21:05;;;;;;;11.13;6.63;;;;;;;;;;4959330;28;20819;-40
2022/05/30 00:23:32;;;;;;;9.70;8.07;;;;;;;;;;4956927;28;20634;-42
2022/05/30 00:25:58;;;;;;;10.43;7.90;;;;;;;;;;4958617;28;20185;-41
2022/05/30 00:28:24;;;;;;;10.07;7.50;;;;;;;;;;4957761;28;20213;-40
2022/05/30 00:30:51;;;;;;;8.90;7.30;;;;;;;;;;4958764;28;20605;-41
2022/05/30 00:33:18;;;;;;;10.53;9.03;;;;;;;;;;4961085;28;20174;-42
2022/05/30 00:35:44;;;;;;;8.90;7.80;;;;;;;;;;4959141;28;20186;-41
2022/05/30 00:38:11;;;;;;;10.67;9.10;;;;;;;;;;4958177;28;20170;-42
2022/05/30 00:40:38;;;;;;;12.43;9.70;;;;;;;;;;4958156;28;20804;-43
2022/05/30 00:43:17;;;;;;;14.53;10.33;;;;;;;;;;4958963;28;20292;-43
2022/05/30 00:45:43;;;;;;;12.73;10.20;;;;;;;;;;4958105;28;20187;-43
2022/05/30 00:48:09;;;;;;;15.10;11.37;;;;;;;;;;4963762;28;20485;-43
2022/05/30 00:50:36;;;;;;;18.27;12.73;;;;;;;;;;4953104;28;20567;-43
2022/05/30 00:53:02;;;;;;;17.50;13.03;;;;;;;;;;4957218;28;20180;-44
2022/05/30 00:55:28;;;;;;;18.33;14.60;;;;;;;;;;4962713;28;20889;-43
2022/05/30 00:57:56;;;;;;;16.40;13.97;;;;;;;;;;4957719;28;20183;-43
2022/05/30 01:00:25;;;;;;;14.17;12.53;;;;;;;;;;4959388;28;20190;-43
2022/05/30 01:08:31;;;;;;;20.83;16.17;;;;;;;;;;4959276;28;20197;-43
2022/05/30 01:10:57;;;;;;;17.70;14.97;;;;;;;;;;4961388;28;20804;-43
2022/05/30 01:13:27;;;;;;;22.57;17.03;;;;;;;;;;4957515;28;20272;-43
2022/05/30 01:15:53;;;;;;;21.13;17.87;;;;;;;;;;4956241;28;20607;-43
2022/05/30 01:18:23;;;;;;;21.27;16.50;;;;;;;;;;4963006;28;20206;-42
2022/05/30 01:21:04;;;;;;;15.90;14.23;;;;;;;;;;4957207;28;20185;-43
2022/05/30 01:23:33;;;;;;;22.67;17.00;;;;;;;;;;4957920;28;20179;-43
2022/05/30 01:25:59;;;;;;;20.20;17.03;;;;;;;;;;4958518;28;20619;-42
2022/05/30 01:28:44;;;;;;;17.93;15.23;;;;;;;;;;4958481;28;20186;-44
2022/05/30 01:31:11;;;;;;;16.40;14.63;;;;;;;;;;4958506;28;20620;-42
2022/05/30 01:33:37;;;;;;;19.53;16.07;;;;;;;;;;4958873;28;20175;-43
2022/05/30 01:36:04;;;;;;;16.17;14.47;;;;;;;;;;4963859;28;20174;-43
2022/05/30 01:38:30;;;;;;;15.93;14.23;;;;;;;;;;4962205;28;20174;-42
2022/05/30 01:40:56;;;;;;;20.00;14.73;;;;;;;;;;4957860;28;20189;-43
2022/05/30 01:43:23;;;;;;;18.30;16.40;;;;;;;;;;4960306;28;20190;-43
2022/05/30 01:45:49;;;;;;;15.17;13.53;;;;;;;;;;4960201;28;20546;-43
2022/05/30 01:48:15;;;;;;;17.50;15.03;;;;;;;;;;4961049;28;20404;-43
2022/05/30 01:50:41;;;;;;;18.97;13.67;;;;;;;;;;4956220;28;20457;-43
2022/05/30 01:53:07;;;;;;;16.20;14.07;;;;;;;;;;4958483;28;20524;-43
2022/05/30 01:55:34;;;;;;;16.67;14.00;;;;;;;;;;4958397;28;20692;-42
2022/05/30 01:58:00;;;;;;;15.43;12.63;;;;;;;;;;4959828;28;20598;-42
2022/05/30 02:00:26;;;;;;;16.10;12.13;;;;;;;;;;4960810;28;20239;-43
2022/05/30 02:02:52;;;;;;;17.03;12.77;;;;;;;;;;4960118;28;20677;-41
2022/05/30 02:05:18;;;;;;;18.63;15.43;;;;;;;;;;4957441;28;20241;-42
2022/05/30 02:07:45;;;;;;;13.57;12.17;;;;;;;;;;4958502;28;20591;-42
2022/05/30 02:10:11;;;;;;;14.13;11.63;;;;;;;;;;4962602;28;20385;-43
2022/05/30 02:12:37;;;;;;;12.80;10.07;;;;;;;;;;4955759;28;20653;-41
2022/05/30 02:15:03;;;;;;;14.63;11.47;;;;;;;;;;4953995;28;20178;-43
2022/05/30 02:17:32;;;;;;;12.17;9.13;;;;;;;;;;4960902;28;20872;-43
2022/05/30 02:19:58;;;;;;;12.50;10.10;;;;;;;;;;4955950;28;20187;-42
2022/05/30 02:22:29;;;;;;;14.43;10.23;;;;;;;;;;4955228;28;21069;-43
2022/05/30 02:24:55;;;;;;;12.27;10.50;;;;;;;;;;4956793;28;20174;-43
2022/05/30 02:27:21;;;;;;;14.50;11.40;;;;;;;;;;4957021;28;20182;-42
2022/05/30 02:29:47;;;;;;;14.67;9.83;;;;;;;;;;4953076;28;20555;-43
2022/05/30 02:32:13;;;;;;;13.70;9.63;;;;;;;;;;4954302;28;20259;-43
2022/05/30 02:37:24;;;;;;;14.37;12.30;;;;;;;;;;4958959;28;20204;-42
2022/05/30 02:39:50;;;;;;;15.00;11.83;;;;;;;;;;4959199;28;20886;-42
2022/05/30 02:42:16;;;;;;;15.67;10.23;;;;;;;;;;4957464;28;20182;-43
2022/05/30 02:44:44;;;;;;;17.00;12.40;;;;;;;;;;4957297;28;20182;-43
2022/05/30 02:47:10;;;;;;;13.23;11.60;;;;;;;;;;4959436;28;20553;-42
2022/05/30 02:49:36;;;;;;;13.40;10.53;;;;;;;;;;4955088;28;20178;-43
2022/05/30 02:52:03;;;;;;;16.10;11.73;;;;;;;;;;4954505;28;20772;-43
2022/05/30 02:54:29;;;;;;;12.10;10.90;;;;;;;;;;4957074;28;20170;-42
2022/05/30 02:56:56;;;;;;;14.63;11.57;;;;;;;;;;4957124;28;20482;-43
2022/05/30 02:59:22;;;;;;;15.37;11.30;;;;;;;;;;4954803;28;20721;-42
2022/05/30 03:01:48;;;;;;;14.53;10.93;;;;;;;;;;4956914;28;20386;-42
2022/05/30 03:04:15;;;;;;;12.37;11.07;;;;;;;;;;4958604;28;20181;-43
2022/05/30 03:06:41;;;;;;;15.10;11.13;;;;;;;;;;4957729;28;20366;-43
2022/05/30 03:09:07;;;;;;;14.03;11.83;;;;;;;;;;4960785;28;20180;-43
2022/05/30 03:11:33;;;;;;;13.10;10.73;;;;;;;;;;4961362;28;20488;-41
2022/05/30 03:13:59;;;;;;;16.13;11.23;;;;;;;;;;4958010;28;20485;-43
2022/05/30 03:16:26;;;;;;;15.03;10.97;;;;;;;;;;4959249;28;20174;-43
2022/05/30 03:18:52;;;;;;;18.50;12.20;;;;;;;;;;4965343;28;20185;-43
2022/05/30 03:21:18;;;;;;;17.80;10.57;;;;;;;;;;4961403;28;20182;-43
2022/05/30 03:23:44;;;;;;;16.90;12.30;;;;;;;;;;4959550;28;20186;-43
2022/05/30 03:26:11;;;;;;;17.17;12.00;;;;;;;;;;4956738;28;20174;-42
2022/05/30 03:28:38;;;;;;;15.60;11.80;;;;;;;;;;4966400;28;20646;-43
2022/05/30 03:31:07;;;;;;;17.60;11.80;;;;;;;;;;4961297;28;20288;-43
2022/05/30 03:33:33;;;;;;;13.80;10.43;;;;;;;;;;4961152;28;20990;-43
2022/05/30 03:35:59;;;;;;;15.17;11.47;;;;;;;;;;4965507;28;20563;-43
2022/05/30 03:38:25;;;;;;;15.03;11.77;;;;;;;;;;4961837;28;20685;-43
2022/05/30 03:40:51;;;;;;;15.53;11.47;;;;;;;;;;4963798;28;20610;-41
2022/05/30 03:43:18;;;;;;;15.17;11.40;;;;;;;;;;4959346;28;20186;-42
2022/05/30 03:45:44;;;;;;;14.37;10.27;;;;;;;;;;4960042;28;20178;-43
2022/05/30 03:48:12;;;;;;;12.37;9.93;;;;;;;;;;4965973;28;20182;-43
2022/05/30 03:50:40;;;;;;;10.50;9.30;;;;;;;;;;4962112;28;20174;-43
2022/05/30 03:53:06;;;;;;;21.93;11.93;;;;;;;;;;4957707;28;20182;-43
2022/05/30 03:55:42;;;;;;;12.27;10.70;;;;;;;;;;4955600;28;20171;-43
2022/05/30 03:58:09;;;;;;;13.67;10.63;;;;;;;;;;4960921;28;20829;-43
2022/05/30 04:00:39;;;;;;;13.67;9.70;;;;;;;;;;4962739;28;20513;-43
2022/05/30 04:03:06;;;;;;;17.80;11.90;;;;;;;;;;4960828;28;20832;-43
2022/05/30 04:05:32;;;;;;;19.27;10.57;;;;;;;;;;4959871;28;20265;-43
2022/05/30 04:07:58;;;;;;;17.17;11.43;;;;;;;;;;4964953;28;20179;-43
2022/05/30 04:10:25;;;;;;;21.37;11.10;;;;;;;;;;4960149;28;20679;-41
2022/05/30 04:12:51;;;;;;;18.77;11.17;;;;;;;;;;4960923;28;20772;-43
2022/05/30 04:15:19;;;;;;;18.20;9.87;;;;;;;;;;4963690;28;20179;-41
2022/05/30 04:17:45;;;;;;;24.07;10.20;;;;;;;;;;4964253;28;20526;-43
2022/05/30 04:20:12;;;;;;;18.20;8.37;;;;;;;;;;4961495;28;20174;-43
2022/05/30 04:22:38;;;;;;;17.27;8.30;;;;;;;;;;4961684;28;20177;-43
2022/05/30 04:25:04;;;;;;;13.73;7.70;;;;;;;;;;4962969;28;20175;-43
2022/05/30 04:27:32;;;;;;;12.83;7.47;;;;;;;;;;4960149;28;20274;-43
2022/05/30 04:29:58;;;;;;;17.03;7.40;;;;;;;;;;4955318;28;20358;-43
2022/05/30 04:32:24;;;;;;;8.77;6.90;;;;;;;;;;4958838;28;21193;-41
2022/05/30 04:34:50;;;;;;;9.67;6.50;;;;;;;;;;4962563;28;20190;-43
2022/05/30 04:37:16;;;;;;;11.57;6.83;;;;;;;;;;4958838;28;20183;-43
2022/05/30 04:39:42;;;;;;;11.77;6.93;;;;;;;;;;4960055;28;20926;-43
2022/05/30 04:42:09;;;;;;;12.77;6.30;;;;;;;;;;4963019;28;20202;-43
2022/05/30 04:44:35;;;;;;;12.93;7.97;;;;;;;;;;4958555;28;20776;-43
2022/05/30 04:47:01;;;;;;;14.00;8.00;;;;;;;;;;4958073;28;20178;-43
2022/05/30 04:49:28;;;;;;;10.00;7.30;;;;;;;;;;4957833;28;20178;-43
2022/05/30 04:51:54;;;;;;;11.33;6.13;;;;;;;;;;4956781;28;20515;-42
2022/05/30 04:54:21;;;;;;;8.43;6.00;;;;;;;;;;4958952;28;20643;-43
2022/05/30 04:56:48;;;;;;;8.43;5.83;;;;;;;;;;4959390;28;20377;-43
2022/05/30 04:59:14;;;;;;;6.97;5.03;;;;;;;;;;4958012;28;20667;-41
2022/05/30 05:01:40;;;;;;;9.67;5.67;;;;;;;;;;4958633;28;20500;-43
2022/05/30 05:04:07;;;;;;;7.23;5.70;;;;;;;;;;4962763;28;20185;-41
2022/05/30 05:06:33;;;;;;;6.73;5.67;;;;;;;;;;4956176;28;20767;-43
2022/05/30 05:09:05;;;;;;;8.73;5.83;;;;;;;;;;4961748;28;20240;-42
2022/05/30 05:11:32;;;;;;;7.37;5.20;;;;;;;;;;4938839;28;20309;-43
2022/05/30 05:13:59;;;;;;;6.67;4.60;;;;;;;;;;4958688;28;20166;-43
2022/05/30 05:16:26;;;;;;;6.63;4.27;;;;;;;;;;4959984;28;20220;-43
2022/05/30 05:18:52;;;;;;;6.00;4.00;;;;;;;;;;4960768;28;20297;-43
2022/05/30 05:21:23;;;;;;;10.30;4.50;;;;;;;;;;4959287;28;20665;-43
2022/05/30 05:23:49;;;;;;;7.60;4.73;;;;;;;;;;4959402;28;20214;-42
2022/05/30 05:26:16;;;;;;;8.30;4.37;;;;;;;;;;4958325;28;20595;-43
2022/05/30 05:28:42;;;;;;;5.53;4.00;;;;;;;;;;4961460;28;20185;-43
2022/05/30 05:31:10;;;;;;;7.03;3.70;;;;;;;;;;4959903;28;20313;-43
2022/05/30 05:33:36;;;;;;;6.23;3.93;;;;;;;;;;4934436;28;20178;-43
2022/05/30 05:36:02;;;;;;;6.43;3.20;;;;;;;;;;4957104;28;20178;-42
2022/05/30 05:38:29;;;;;;;4.97;2.87;;;;;;;;;;4955768;28;20240;-43
2022/05/30 05:40:55;;;;;;;5.70;2.90;;;;;;;;;;4954296;28;20182;-43
2022/05/30 05:43:21;;;;;;;4.63;2.87;;;;;;;;;;4957733;28;20189;-43
2022/05/30 05:45:47;;;;;;;3.47;2.90;;;;;;;;;;4959523;28;21004;-41
2022/05/30 05:48:13;;;;;;;5.37;3.17;;;;;;;;;;4958176;28;20173;-43
2022/05/30 05:50:43;;;;;;;5.30;2.80;;;;;;;;;;4954824;28;20546;-43
2022/05/30 05:53:10;;;;;;;5.77;2.90;;;;;;;;;;4953034;28;20757;-43
2022/05/30 05:55:37;;;;;;;5.87;3.50;;;;;;;;;;4957757;28;20560;-43
2022/05/30 05:58:04;;;;;;;4.80;2.90;;;;;;;;;;4946369;28;20260;-43
2022/05/30 06:00:31;;;;;;;5.03;3.10;;;;;;;;;;4961268;28;20700;-43
2022/05/30 06:02:57;;;;;;;4.63;2.60;;;;;;;;;;4957773;28;20820;-43
2022/05/30 06:05:24;;;;;;;7.90;2.57;;;;;;;;;;4961058;28;20185;-42
2022/05/30 06:07:50;;;;;;;7.80;2.50;;;;;;;;;;4957727;28;20194;-43
2022/05/30 06:10:16;;;;;;;5.60;2.40;;;;;;;;;;4961134;28;20630;-42
2022/05/30 06:12:44;;;;;;;2.77;2.30;;;;;;;;;;4961693;28;20905;-43
2022/05/30 06:15:14;;;;;;;4.60;2.20;;;;;;;;;;4961615;28;20257;-42
2022/05/30 06:17:41;;;;;;;4.60;2.27;;;;;;;;;;4945839;28;20513;-43
2022/05/30 06:20:07;;;;;;;5.37;2.53;;;;;;;;;;4958988;28;20178;-43
2022/05/30 06:22:34;;;;;;;4.80;2.37;;;;;;;;;;4955967;28;20174;-43
2022/05/30 06:25:00;;;;;;;4.20;1.73;;;;;;;;;;4956183;28;20566;-42
2022/05/30 06:27:26;;;;;;;4.33;2.00;;;;;;;;;;4958206;28;20176;-42
2022/05/30 06:29:52;;;;;;;5.93;2.30;;;;;;;;;;4956421;28;20674;-42
2022/05/30 06:32:18;;;;;;;4.90;2.30;;;;;;;;;;4940340;28;20754;-43
2022/05/30 06:34:45;;;;;;;2.97;1.90;;;;;;;;;;4953934;28;20395;-43
2022/05/30 06:37:11;;;;;;;2.87;1.70;;;;;;;;;;4953748;28;20189;-43
2022/05/30 06:39:38;;;;;;;2.70;1.83;;;;;;;;;;4959832;28;20307;-43
2022/05/30 06:42:08;;;;;;;5.17;1.80;;;;;;;;;;4957050;28;20178;-43
2022/05/30 06:44:36;;;;;;;3.07;1.33;;;;;;;;;;4959969;28;20748;-43
2022/05/30 06:47:03;;;;;;;2.27;1.53;;;;;;;;;;4961038;28;21084;-43
2022/05/30 06:49:29;;;;;;;2.17;1.50;;;;;;;;;;4958241;28;20746;-43
2022/05/30 06:51:55;;;;;;;3.83;1.93;;;;;;;;;;4953788;28;20578;-43
2022/05/30 06:54:21;;;;;;;3.20;1.40;;;;;;;;;;4958695;28;20186;-43
2022/05/30 06:59:32;;;;;;;2.57;1.43;;;;;;;;;;4962024;28;20216;-42
2022/05/30 07:01:59;;;;;;;3.17;1.60;;;;;;;;;;4957332;28;20178;-44
2022/05/30 07:04:26;;;;;;;4.77;1.80;;;;;;;;;;4955414;28;20952;-44
2022/05/30 07:06:52;;;;;;;4.30;1.87;;;;;;;;;;4955133;28;20185;-44
2022/05/30 07:09:19;;;;;;;4.17;1.60;;;;;;;;;;4961947;28;20634;-44
2022/05/30 07:11:45;;;;;;;2.07;1.73;;;;;;;;;;4957954;28;20237;-43
2022/05/30 07:14:12;;;;;;;3.17;1.80;;;;;;;;;;4957732;28;20170;-44
2022/05/30 07:16:39;;;;;;;6.47;2.10;;;;;;;;;;4956253;28;20788;-44
2022/05/30 07:19:05;;;;;;;4.27;1.77;;;;;;;;;;4958237;28;20181;-44
2022/05/30 07:21:31;;;;;;;1.87;1.37;;;;;;;;;;4957152;28;20173;-44
2022/05/30 07:23:57;;;;;;;4.70;1.50;;;;;;;;;;4956810;28;20178;-44
2022/05/30 07:26:24;;;;;;;3.60;1.80;;;;;;;;;;4955503;28;20488;-44
2022/05/30 07:28:51;;;;;;;2.20;1.77;;;;;;;;;;4959715;28;20270;-42
2022/05/30 07:31:19;;;;;;;3.97;1.63;;;;;;;;;;4936884;28;20225;-44
2022/05/30 07:33:47;;;;;;;2.47;1.47;;;;;;;;;;4957303;28;20285;-44
2022/05/30 07:36:24;;;;;;;4.63;1.60;;;;;;;;;;4937423;28;20261;-44
2022/05/30 07:38:50;;;;;;;3.50;1.60;;;;;;;;;;4956844;28;20181;-43
2022/05/30 07:41:17;;;;;;;2.40;1.20;;;;;;;;;;4954979;28;20958;-44
2022/05/30 07:43:44;;;;;;;3.43;1.60;;;;;;;;;;4959603;28;21033;-43
2022/05/30 07:46:11;;;;;;;2.20;1.43;;;;;;;;;;4960474;28;20452;-43
2022/05/30 07:48:38;;;;;;;1.97;1.10;;;;;;;;;;4958779;28;20189;-43
2022/05/30 07:51:04;;;;;;;1.53;0.90;;;;;;;;;;4956170;28;20186;-43
2022/05/30 07:53:31;;;;;;;3.77;1.33;;;;;;;;;;4956146;28;20198;-44
2022/05/30 07:55:58;;;;;;;4.30;1.50;;;;;;;;;;4955083;28;20179;-44
2022/05/30 07:58:24;;;;;;;2.57;1.50;;;;;;;;;;4957645;28;20926;-44
2022/05/30 08:00:54;;;;;;;1.87;1.30;;;;;;;;;;4962605;28;20196;-43
2022/05/30 08:03:21;;;;;;;4.10;1.50;;;;;;;;;;4962983;28;20179;-41
2022/05/30 08:05:47;;;;;;;2.20;1.73;;;;;;;;;;4963786;28;20194;-44
2022/05/30 08:08:16;;;;;;;3.17;1.70;;;;;;;;;;4961836;28;20425;-44
2022/05/30 08:10:42;;;;;;;3.73;1.70;;;;;;;;;;4964698;28;20178;-44
2022/05/30 08:13:08;;;;;;;4.07;1.63;;;;;;;;;;4960429;28;20613;-42
2022/05/30 08:15:35;;;;;;;1.87;1.40;;;;;;;;;;4957981;28;20181;-43
2022/05/30 08:18:02;;;;;;;2.93;1.40;;;;;;;;;;4962745;28;20181;-42
2022/05/30 08:20:30;;;;;;;3.93;1.90;;;;;;;;;;4939544;28;20175;-44
2022/05/30 08:22:56;;;;;;;2.93;1.50;;;;;;;;;;4953527;28;20209;-42
2022/05/30 08:25:22;;;;;;;2.77;1.50;;;;;;;;;;4958169;28;20429;-44
2022/05/30 08:27:49;;;;;;;3.57;1.50;;;;;;;;;;4960670;28;20525;-44
2022/05/30 08:30:18;;;;;;;2.67;1.33;;;;;;;;;;4956155;28;20166;-43
2022/05/30 08:32:44;;;;;;;3.23;1.40;;;;;;;;;;4960641;28;20638;-42
2022/05/30 08:35:13;;;;;;;2.90;1.50;;;;;;;;;;4960047;28;20186;-42
2022/05/30 08:37:40;;;;;;;4.67;1.40;;;;;;;;;;4956888;28;20978;-42
2022/05/30 08:43:07;;;;;;;2.67;1.13;;;;;;;;;;4959126;28;20201;-43
2022/05/30 08:45:33;;;;;;;2.07;1.23;;;;;;;;;;4959832;28;20672;-42
2022/05/30 08:48:00;;;;;;;3.23;1.27;;;;;;;;;;4959012;28;20636;-43
2022/05/30 08:50:52;;;;;;;3.67;1.80;;;;;;;;;;4960799;28;20174;-42
2022/05/30 08:53:21;;;;;;;2.23;1.50;;;;;;;;;;4955523;28;20730;-42
2022/05/30 08:55:51;;;;;;;4.80;1.60;;;;;;;;;;4956946;28;20182;-42
2022/05/30 08:58:36;;;;;;;4.20;1.47;;;;;;;;;;4957528;28;20209;-43
2022/05/30 09:01:21;;;;;;;5.37;1.83;;;;;;;;;;4951686;28;20179;-43
2022/05/30 09:04:09;;;;;;;2.70;1.10;;;;;;;;;;4951885;28;20516;-42
2022/05/30 09:06:39;;;;;;;3.77;1.20;;;;;;;;;;4955374;28;21694;-42
2022/05/30 09:09:28;;;;;;;2.87;1.30;;;;;;;;;;4956597;28;20702;-41
2022/05/30 09:12:06;;;;;;;3.77;1.67;;;;;;;;;;4943519;28;20556;-42
2022/05/30 09:14:39;;;;;;;1.67;1.20;;;;;;;;;;4957166;28;20638;-42
2022/05/30 09:17:09;;;;;;;4.13;1.57;;;;;;;;;;4954931;28;20182;-43
2022/05/30 09:19:35;;;;;;;3.10;1.27;;;;;;;;;;4954282;28;20841;-42
2022/05/30 09:22:04;;;;;;;2.70;1.20;;;;;;;;;;4958107;28;21168;-42
2022/05/30 09:24:31;;;;;;;3.33;1.53;;;;;;;;;;4956886;28;20252;-42
2022/05/30 09:26:57;;;;;;;2.47;1.60;;;;;;;;;;4958977;28;20178;-41
2022/05/30 09:29:35;;;;;;;4.63;1.77;;;;;;;;;;4960148;28;20218;-43
2022/05/30 09:32:20;;;;;;;3.57;1.50;;;;;;;;;;4957341;28;20264;-43
2022/05/30 09:34:48;;;;;;;2.87;1.40;;;;;;;;;;4955449;28;20189;-43
2022/05/30 09:37:24;;;;;;;3.97;1.57;;;;;;;;;;4957337;28;20737;-42
2022/05/30 09:39:50;;;;;;;5.00;1.60;;;;;;;;;;4956064;28;20614;-43
2022/05/30 09:42:22;;;;;;;4.57;1.53;;;;;;;;;;4955272;28;20178;-43
2022/05/30 09:44:50;;;;;;;6.13;1.80;;;;;;;;;;4958315;28;20275;-43
2022/05/30 09:47:18;;;;;;;4.87;1.50;;;;;;;;;;4958581;28;20462;-42
2022/05/30 09:49:48;;;;;;;3.03;1.90;;;;;;;;;;4955207;28;20189;-42
2022/05/30 09:52:36;;;;;;;2.77;1.57;;;;;;;;;;4955337;28;20206;-43
2022/05/30 09:55:20;;;;;;;5.07;1.97;;;;;;;;;;4950435;28;20193;-43
2022/05/30 09:57:46;;;;;;;4.30;1.60;;;;;;;;;;4958760;28;20213;-42
2022/05/30 10:00:16;;;;;;;3.40;1.90;;;;;;;;;;4955845;28;20742;-42
2022/05/30 10:02:46;;;;;;;3.27;2.00;;;;;;;;;;4958343;28;20516;-43
2022/05/30 10:05:21;;;;;;;2.07;1.60;;;;;;;;;;4961009;28;20204;-43
2022/05/30 10:07:52;;;;;;;3.53;1.70;;;;;;;;;;4953910;28;20255;-42
2022/05/30 10:10:23;;;;;;;2.83;2.00;;;;;;;;;;4957785;28;20174;-43
2022/05/30 10:12:58;;;;;;;2.27;1.80;;;;;;;;;;4956357;28;20233;-43
2022/05/30 10:15:24;;;;;;;4.20;2.03;;;;;;;;;;4955590;28;20259;-43
2022/05/30 10:17:51;;;;;;;3.57;2.30;;;;;;;;;;4951795;28;20213;-43
2022/05/30 10:20:23;;;;;;;2.77;2.20;;;;;;;;;;4956347;28;20182;-43
2022/05/30 10:28:52;;;;;;;3.73;2.50;;;;;;;;;;4944150;28;20481;-42
2022/05/30 10:31:20;;;;;;;3.67;2.63;;;;;;;;;;4959170;28;20216;-43
2022/05/30 10:34:05;;;;;;;2.43;2.10;;;;;;;;;;4958997;28;20629;-43
2022/05/30 10:36:58;;;;;;;2.57;2.20;;;;;;;;;;4956141;28;20890;-44
2022/05/30 10:39:26;;;;;;;4.47;2.30;;;;;;;;;;4924170;28;20201;-43
2022/05/30 10:42:09;;;;;;;5.30;2.40;;;;;;;;;;4956082;28;20857;-43
2022/05/30 10:44:48;;;;;;;2.60;2.10;;;;;;;;;;4958561;28;20200;-42
2022/05/30 10:47:15;;;;;;;4.33;2.40;;;;;;;;;;4955801;28;20186;-43
2022/05/30 10:49:44;;;;;;;5.57;2.83;;;;;;;;;;4957394;28;20441;-43
2022/05/30 10:52:10;;;;;;;3.77;2.50;;;;;;;;;;4957919;28;20229;-43
2022/05/30 10:54:42;;;;;;;3.77;2.40;;;;;;;;;;4957954;28;20182;-44
2022/05/30 10:57:21;;;;;;;6.70;3.20;;;;;;;;;;4957507;28;20714;-44
2022/05/30 10:59:53;;;;;;;5.67;3.20;;;;;;;;;;4958138;28;21063;-44
2022/05/30 11:02:26;;;;;;;5.57;2.77;;;;;;;;;;4955725;28;20249;-43
2022/05/30 11:04:52;;;;;;;5.27;3.20;;;;;;;;;;4960406;28;20653;-44
2022/05/30 11:07:36;;;;;;;5.90;3.00;;;;;;;;;;4957195;28;20241;-42
2022/05/30 11:10:06;;;;;;;4.73;2.97;;;;;;;;;;4960018;28;20186;-43
2022/05/30 11:12:38;;;;;;;3.13;2.60;;;;;;;;;;4959619;28;20194;-43
2022/05/30 11:15:07;;;;;;;7.00;3.30;;;;;;;;;;4960111;28;20210;-43
2022/05/30 11:17:38;;;;;;;5.03;2.87;;;;;;;;;;4959299;28;20226;-43
2022/05/30 11:20:10;;;;;;;6.53;3.07;;;;;;;;;;4958899;28;20182;-43
2022/05/30 11:22:41;;;;;;;3.73;3.20;;;;;;;;;;4960522;28;20174;-42
2022/05/30 11:25:15;;;;;;;7.20;3.37;;;;;;;;;;4957305;28;20182;-43
2022/05/30 11:27:41;;;;;;;4.87;3.00;;;;;;;;;;4956400;28;20178;-44
2022/05/30 11:30:07;;;;;;;4.83;3.20;;;;;;;;;;4957528;28;20182;-43
2022/05/30 11:32:33;;;;;;;3.67;2.80;;;;;;;;;;4951506;28;20307;-44
2022/05/30 11:35:09;;;;;;;5.57;3.40;;;;;;;;;;4940671;28;20216;-43
2022/05/30 11:37:38;;;;;;;4.70;2.87;;;;;;;;;;4958788;28;21019;-43
2022/05/30 11:40:19;;;;;;;4.83;3.30;;;;;;;;;;4962646;28;20217;-43
2022/05/30 11:42:49;;;;;;;6.57;3.03;;;;;;;;;;4965095;28;20181;-43
2022/05/30 11:45:18;;;;;;;5.47;3.07;;;;;;;;;;4965165;28;20182;-44
2022/05/30 11:47:53;;;;;;;3.57;3.13;;;;;;;;;;4963403;28;20178;-43
2022/05/30 11:50:38;;;;;;;5.47;3.67;;;;;;;;;;4963036;28;20690;-43
2022/05/30 11:53:04;;;;;;;5.27;2.87;;;;;;;;;;4957561;28;20210;-43
2022/05/30 11:55:36;;;;;;;5.53;3.10;;;;;;;;;;4962612;28;20526;-43
2022/05/30 11:58:08;;;;;;;4.40;3.00;;;;;;;;;;4963116;28;20861;-43
2022/05/30 12:00:41;;;;;;;6.17;3.10;;;;;;;;;;4959712;28;20260;-44
2022/05/30 12:03:14;;;;;;;4.43;3.43;;;;;;;;;;4962480;28;20270;-44
2022/05/30 12:05:43;;;;;;;4.40;3.10;;;;;;;;;;4959863;28;20625;-44
2022/05/30 12:08:33;;;;;;;4.00;3.30;;;;;;;;;;4960868;28;20182;-44
2022/05/30 12:11:11;;;;;;;3.40;3.10;;;;;;;;;;4957436;28;20825;-43
2022/05/30 12:13:49;;;;;;;5.80;3.37;;;;;;;;;;4964509;28;20265;-43
2022/05/30 12:16:34;;;;;;;4.27;3.70;;;;;;;;;;4959357;28;21018;-44
2022/05/30 12:24:40;;;;;;;4.73;3.13;;;;;;;;;;4961808;28;20820;-43
2022/05/30 12:27:33;;;;;;;4.43;4.00;;;;;;;;;;4962496;28;20276;-44
2022/05/30 12:30:00;;;;;;;5.13;3.53;;;;;;;;;;4959148;28;20589;-42
2022/05/30 12:32:36;;;;;;;6.30;4.20;;;;;;;;;;4960781;28;20225;-44
2022/05/30 12:35:11;;;;;;;6.23;3.70;;;;;;;;;;4960488;28;20272;-44
2022/05/30 12:37:51;;;;;;;4.50;4.03;;;;;;;;;;4963085;28;20397;-43
2022/05/30 12:40:27;;;;;;;5.17;3.90;;;;;;;;;;4960913;28;20323;-43
2022/05/30 12:43:15;;;;;;;5.53;4.10;;;;;;;;;;4959807;28;20200;-43
2022/05/30 12:45:44;;;;;;;5.87;4.57;;;;;;;;;;4958995;28;20186;-42
2022/05/30 12:48:12;;;;;;;6.53;4.07;;;;;;;;;;4961582;28;20313;-43
2022/05/30 12:50:43;;;;;;;5.13;3.63;;;;;;;;;;4957979;28;20183;-43
2022/05/30 12:53:10;;;;;;;6.90;4.10;;;;;;;;;;4954686;28;20589;-44
2022/05/30 12:55:39;;;;;;;4.60;3.80;;;;;;;;;;4962009;28;20182;-44
2022/05/30 12:58:06;;;;;;;6.83;4.03;;;;;;;;;;4958664;28;20187;-44
2022/05/30 13:00:42;;;;;;;5.87;4.23;;;;;;;;;;4958291;28;20335;-43
2022/05/30 13:03:14;;;;;;;5.50;4.40;;;;;;;;;;4961170;28;20228;-43
2022/05/30 13:06:10;;;;;;;4.30;3.83;;;;;;;;;;4963922;28;20669;-43
2022/05/30 13:08:55;;;;;;;7.43;4.67;;;;;;;;;;4956403;28;20718;-44
2022/05/30 13:11:33;;;;;;;7.17;4.03;;;;;;;;;;4959031;28;20535;-43
2022/05/30 13:14:16;;;;;;;5.40;4.43;;;;;;;;;;4961361;28;20186;-43
2022/05/30 13:16:43;;;;;;;5.13;3.90;;;;;;;;;;4959431;28;20214;-43
2022/05/30 13:19:14;;;;;;;8.53;4.67;;;;;;;;;;4941600;28;20182;-43
2022/05/30 13:21:43;;;;;;;7.50;4.40;;;;;;;;;;4955139;28;20291;-43
2022/05/30 13:24:26;;;;;;;5.87;4.50;;;;;;;;;;4961547;28;20578;-43
2022/05/30 13:26:52;;;;;;;6.03;4.70;;;;;;;;;;4960229;28;20280;-44
2022/05/30 13:29:18;;;;;;;7.07;4.43;;;;;;;;;;4940089;28;20762;-44
2022/05/30 13:31:49;;;;;;;5.77;4.10;;;;;;;;;;4961643;28;20209;-43
2022/05/30 13:34:17;;;;;;;5.33;4.47;;;;;;;;;;4961487;28;20174;-43
2022/05/30 13:36:44;;;;;;;5.70;3.93;;;;;;;;;;4959302;28;20531;-43
2022/05/30 13:39:11;;;;;;;7.27;4.03;;;;;;;;;;4956644;28;20607;-44
2022/05/30 13:41:41;;;;;;;5.50;4.43;;;;;;;;;;4963370;28;20190;-43
2022/05/30 13:44:11;;;;;;;7.30;4.40;;;;;;;;;;4958679;28;20773;-43
2022/05/30 13:46:43;;;;;;;8.37;4.57;;;;;;;;;;4959489;28;20938;-44
2022/05/30 13:49:09;;;;;;;10.27;4.73;;;;;;;;;;4963135;28;20189;-44
2022/05/30 13:51:39;;;;;;;4.30;3.90;;;;;;;;;;4956599;28;20906;-43
2022/05/30 13:54:10;;;;;;;7.00;4.03;;;;;;;;;;4957356;28;20642;-43
2022/05/30 13:56:37;;;;;;;8.77;4.30;;;;;;;;;;4959710;28;20596;-43
2022/05/30 13:59:23;;;;;;;6.03;4.30;;;;;;;;;;4957359;28;20187;-43
2022/05/30 14:01:55;;;;;;;4.53;3.83;;;;;;;;;;4944853;28;20198;-43
2022/05/30 14:04:25;;;;;;;4.40;4.00;;;;;;;;;;4963002;28;20186;-44
2022/05/30 14:06:51;;;;;;;4.77;4.10;;;;;;;;;;4959426;28;20481;-43
2022/05/30 14:09:19;;;;;;;4.73;3.67;;;;;;;;;;4958984;28;20431;-44
2022/05/30 14:11:47;;;;;;;5.30;4.80;;;;;;;;;;4955389;28;20248;-43
2022/05/30 14:14:13;;;;;;;6.33;4.53;;;;;;;;;;4958629;28;20190;-43
2022/05/30 14:16:44;;;;;;;8.77;4.67;;;;;;;;;;4953647;28;20190;-43
2022/05/30 14:19:24;;;;;;;5.07;4.33;;;;;;;;;;4956782;28;20185;-43
2022/05/30 14:21:54;;;;;;;4.53;4.07;;;;;;;;;;4950377;28;20189;-43
2022/05/30 14:24:25;;;;;;;6.77;4.53;;;;;;;;;;4956406;28;20189;-43
2022/05/30 14:26:52;;;;;;;4.30;3.90;;;;;;;;;;4954512;28;20236;-44
2022/05/30 14:29:24;;;;;;;5.47;4.27;;;;;;;;;;4958804;28;20174;-43
2022/05/30 14:32:01;;;;;;;6.37;4.83;;;;;;;;;;4952233;28;20210;-43
2022/05/30 14:34:33;;;;;;;5.47;3.60;;;;;;;;;;4954228;28;20169;-43
2022/05/30 14:37:00;;;;;;;5.13;4.50;;;;;;;;;;4949089;28;20241;-43
2022/05/30 14:39:29;;;;;;;5.00;4.50;;;;;;;;;;4947074;28;20261;-43
2022/05/30 14:42:03;;;;;;;7.20;5.17;;;;;;;;;;4951623;28;20793;-43
2022/05/30 14:44:34;;;;;;;8.77;5.20;;;;;;;;;;4958359;28;20761;-43
2022/05/30 14:47:07;;;;;;;5.37;4.33;;;;;;;;;;4953252;28;20189;-43
2022/05/30 14:49:34;;;;;;;6.20;4.77;;;;;;;;;;4956076;28;20201;-43
2022/05/30 14:52:02;;;;;;;5.83;4.13;;;;;;;;;;4954907;28;20577;-43
2022/05/30 14:54:34;;;;;;;5.20;4.47;;;;;;;;;;4951914;28;20174;-43
2022/05/30 14:57:02;;;;;;;5.50;4.50;;;;;;;;;;4950441;28;20277;-43
2022/05/30 14:59:32;;;;;;;6.30;4.33;;;;;;;;;;4960794;28;20180;-43
2022/05/30 15:01:58;;;;;;;6.07;4.30;;;;;;;;;;4954143;28;20182;-43
2022/05/30 15:04:24;;;;;;;4.60;4.13;;;;;;;;;;4955385;28;20185;-43
2022/05/30 15:07:01;;;;;;;5.57;4.70;;;;;;;;;;4954784;28;20514;-43
2022/05/30 15:09:28;;;;;;;7.60;4.77;;;;;;;;;;4956959;28;20185;-43
2022/05/30 15:11:55;;;;;;;6.33;4.60;;;;;;;;;;4961070;28;20273;-43
2022/05/30 15:14:26;;;;;;;5.13;4.57;;;;;;;;;;4968366;28;20174;-43